Time;durP1;ratioP1;P1;durP2;ratioP2;P2;SDS_P1;SDS_P2;PMS_P1;PMS_P2;Temp;Humidity;BMP_temperature;BMP_pressure;BME280_temperature;BME280_humidity;BME280_pressure;Samples;Min_cycle;Max_cycle;Signal;HPM_P1;HPM_P2
2022/08/05 00:00:28;;;;;;;5.72;2.85;;;;;;;25.32;40.74;99646.59;3153252;28;20109;-64
2022/08/05 00:02:00;;;;;;;4.05;2.88;;;;;;;25.26;40.93;99644.59;3143358;28;20063;-64
2022/08/05 00:03:33;;;;;;;4.30;2.85;;;;;;;25.25;40.65;99648.28;3148733;28;20041;-64
2022/08/05 00:05:05;;;;;;;;;;;;;;;25.17;41.08;99649.09;3149211;28;20060;-64
2022/08/05 00:06:37;;;;;;;6.90;3.50;;;;;;;25.12;41.14;99646.09;3148784;28;19927;-64
2022/08/05 00:08:09;;;;;;;7.20;3.33;;;;;;;25.13;41.35;99647.75;3148339;28;20052;-64
2022/08/05 00:09:41;;;;;;;7.03;3.03;;;;;;;25.13;41.26;99648.63;3148740;28;20067;-64
2022/08/05 00:11:14;;;;;;;7.90;3.47;;;;;;;25.14;41.54;99644.97;3148675;28;20059;-64
2022/08/05 00:12:46;;;;;;;5.43;3.42;;;;;;;25.15;41.50;99640.47;3148791;28;20040;-64
2022/08/05 00:14:19;;;;;;;7.50;3.15;;;;;;;25.15;41.51;99641.28;3145733;28;20059;-64
2022/08/05 00:15:51;;;;;;;5.50;3.40;;;;;;;25.14;41.77;99641.44;3148685;28;20479;-64
2022/08/05 00:17:22;;;;;;;7.68;3.70;;;;;;;25.14;41.70;99636.13;3148375;28;20063;-64
2022/08/05 00:18:56;;;;;;;6.90;3.80;;;;;;;25.15;42.21;99643.13;3148513;28;20415;-64
2022/08/05 00:20:28;;;;;;;;;;;;;;;25.11;41.87;99636.41;3149041;28;20048;-64
2022/08/05 00:22:00;;;;;;;4.72;3.30;;;;;;;25.10;42.25;99643.59;3148906;28;19944;-64
2022/08/05 00:23:32;;;;;;;10.65;4.22;;;;;;;25.08;42.22;99640.28;3148541;28;20048;-64
2022/08/05 00:25:04;;;;;;;6.53;4.47;;;;;;;25.07;42.48;99646.59;3148648;28;20044;-64
2022/08/05 00:26:36;;;;;;;7.70;4.32;;;;;;;25.02;43.00;99638.25;3142192;28;20048;-64
2022/08/05 00:28:08;;;;;;;12.15;4.75;;;;;;;25.00;43.15;99644.78;3148403;28;20044;-64
2022/08/05 00:29:40;;;;;;;6.68;4.00;;;;;;;24.93;43.57;99642.75;3148615;28;20067;-64
2022/08/05 00:31:12;;;;;;;9.38;4.18;;;;;;;24.88;43.60;99636.28;3149163;28;20412;-64
2022/08/05 00:32:44;;;;;;;8.63;4.38;;;;;;;24.83;44.06;99642.09;3148758;28;20170;-64
2022/08/05 00:34:16;;;;;;;7.55;4.18;;;;;;;24.78;44.38;99639.06;3148556;28;20059;-64
2022/08/05 00:35:48;;;;;;;7.40;4.00;;;;;;;24.73;44.12;99644.91;3148587;28;20052;-64
2022/08/05 00:37:20;;;;;;;9.75;4.43;;;;;;;24.71;44.33;99633.56;3148422;28;20113;-64
2022/08/05 00:38:52;;;;;;;10.82;4.53;;;;;;;24.69;44.45;99637.41;3141251;28;20044;-64
2022/08/05 00:40:26;;;;;;;5.25;3.83;;;;;;;24.69;44.53;99637.41;3143176;28;20112;-63
2022/08/05 00:41:58;;;;;;;8.52;4.40;;;;;;;24.69;44.44;99635.56;3148745;28;20056;-64
2022/08/05 00:43:30;;;;;;;9.30;4.50;;;;;;;24.67;44.62;99631.44;3148341;28;20044;-64
2022/08/05 00:45:04;;;;;;;6.05;3.45;;;;;;;24.62;44.58;99631.06;3148476;28;20491;-64
2022/08/05 00:46:36;;;;;;;9.63;4.43;;;;;;;24.64;44.91;99634.38;3151605;28;20047;-64
2022/08/05 00:48:08;;;;;;;8.38;4.45;;;;;;;24.57;45.10;99631.56;3148079;28;20075;-64
2022/08/05 00:49:41;;;;;;;7.03;4.45;;;;;;;24.48;45.36;99624.56;3148353;28;20056;-64
2022/08/05 00:51:14;;;;;;;10.82;4.57;;;;;;;24.37;45.44;99628.31;3148609;28;20048;-64
2022/08/05 00:52:45;;;;;;;7.40;4.07;;;;;;;24.29;45.72;99623.81;3148058;28;20052;-64
2022/08/05 00:54:17;;;;;;;9.70;4.57;;;;;;;24.22;45.95;99627.28;3148141;28;20055;-64
2022/08/05 00:55:50;;;;;;;9.93;4.40;;;;;;;24.15;46.11;99623.59;3147400;28;20048;-64
2022/08/05 00:57:22;;;;;;;12.80;4.47;;;;;;;24.07;46.54;99619.91;3148464;28;20052;-63
2022/08/05 00:58:54;;;;;;;7.75;4.70;;;;;;;24.03;46.60;99623.88;3148230;28;20175;-64
2022/08/05 01:00:26;;;;;;;9.75;4.63;;;;;;;23.99;46.44;99629.69;3147995;28;20074;-64
2022/08/05 01:01:58;;;;;;;10.93;4.50;;;;;;;23.99;46.31;99622.56;3153591;28;20518;-64
2022/08/05 01:03:30;;;;;;;6.15;3.80;;;;;;;24.02;46.46;99624.06;3148131;28;20048;-64
2022/08/05 01:05:03;;;;;;;9.60;3.92;;;;;;;24.05;46.44;99621.06;3148072;28;20052;-64
2022/08/05 01:06:35;;;;;;;10.45;4.60;;;;;;;24.04;46.43;99627.38;3148010;28;20048;-64
2022/08/05 01:08:07;;;;;;;6.18;4.03;;;;;;;24.05;46.38;99629.06;3147829;28;20089;-63
2022/08/05 01:09:40;;;;;;;7.55;4.28;;;;;;;23.98;46.49;99626.19;3148099;28;20063;-64
2022/08/05 01:11:16;;;;;;;7.50;3.88;;;;;;;23.96;46.46;99628.19;3148111;28;20451;-64
2022/08/05 01:12:54;;;;;;;6.75;4.70;;;;;;;23.91;46.69;99625.16;3147693;28;20407;-64
2022/08/05 01:14:31;;;;;;;10.48;3.90;;;;;;;23.91;46.65;99625.16;3148071;28;20060;-63
2022/08/05 01:16:06;;;;;;;9.63;3.58;;;;;;;23.89;46.67;99626.31;3148036;28;20044;-63
2022/08/05 01:17:45;;;;;;;9.73;4.97;;;;;;;23.85;46.74;99628.47;3148298;28;20051;-63
2022/08/05 01:19:26;;;;;;;9.45;4.60;;;;;;;23.81;46.64;99621.78;3147956;28;20052;-63
2022/08/05 01:21:11;;;;;;;9.90;4.25;;;;;;;23.80;47.07;99626.25;3147869;28;20068;-64
2022/08/05 01:22:58;;;;;;;8.88;4.45;;;;;;;23.78;46.80;99625.63;3147742;28;20119;-64
2022/08/05 01:24:52;;;;;;;9.65;4.38;;;;;;;23.76;46.95;99627.59;3148022;28;20128;-64
2022/08/05 01:26:36;;;;;;;12.10;4.13;;;;;;;23.76;46.98;99621.44;3147848;28;20122;-64
2022/08/05 01:28:30;;;;;;;9.80;4.45;;;;;;;23.76;47.21;99622.28;3146383;28;20052;-64
2022/08/05 01:30:05;;;;;;;14.10;4.72;;;;;;;23.75;46.90;99623.28;3144256;28;20056;-66
2022/08/05 01:31:42;;;;;;;12.13;4.20;;;;;;;23.75;46.85;99628.59;3153871;28;20055;-64
2022/08/05 01:33:14;;;;;;;5.97;4.32;;;;;;;23.73;46.94;99627.91;3147823;28;20049;-66
2022/08/05 01:34:50;;;;;;;6.05;4.10;;;;;;;23.72;46.62;99626.25;3147772;28;20353;-64
2022/08/05 01:36:28;;;;;;;8.73;4.35;;;;;;;23.70;46.88;99627.41;3147854;28;20048;-64
2022/08/05 01:38:03;;;;;;;8.90;4.20;;;;;;;23.69;46.68;99626.50;3147745;28;20059;-64
2022/08/05 01:39:37;;;;;;;8.90;3.90;;;;;;;23.67;46.92;99630.34;3147775;28;20063;-63
2022/08/05 01:41:11;;;;;;;13.90;4.38;;;;;;;23.65;46.84;99632.31;3141834;28;20052;-64
2022/08/05 01:42:46;;;;;;;8.25;4.22;;;;;;;23.64;46.63;99634.13;3147502;28;20048;-64
2022/08/05 01:44:20;;;;;;;6.45;4.40;;;;;;;23.62;46.87;99630.78;3147510;28;20329;-64
2022/08/05 01:45:53;;;;;;;7.28;3.70;;;;;;;23.63;46.54;99629.78;3147603;28;20432;-64
2022/08/05 01:47:26;;;;;;;9.07;4.35;;;;;;;23.64;46.77;99622.69;3149296;28;20071;-64
2022/08/05 01:48:59;;;;;;;7.40;3.60;;;;;;;23.63;46.87;99629.78;3147733;28;20053;-64
2022/08/05 01:50:39;;;;;;;8.43;4.07;;;;;;;23.65;46.74;99629.66;3147620;28;20490;-66
2022/08/05 01:52:13;;;;;;;10.27;4.10;;;;;;;23.65;46.78;99629.66;3144489;28;20053;-65
2022/08/05 01:53:46;;;;;;;10.75;3.90;;;;;;;23.64;46.82;99628.00;3147671;28;20052;-66
2022/08/05 01:55:21;;;;;;;9.47;4.00;;;;;;;23.60;46.61;99627.44;3147477;28;20389;-64
2022/08/05 01:56:56;;;;;;;8.95;3.97;;;;;;;23.48;46.85;99618.06;3147413;28;20440;-65
2022/08/05 01:58:30;;;;;;;7.57;3.70;;;;;;;23.39;46.98;99620.69;3147362;28;20063;-66
2022/08/05 02:00:07;;;;;;;10.70;4.28;;;;;;;23.35;46.79;99627.31;3147487;28;20044;-66
2022/08/05 02:01:40;;;;;;;8.35;3.67;;;;;;;23.26;47.36;99630.06;3145536;28;20086;-66
2022/08/05 02:03:17;;;;;;;7.50;4.05;;;;;;;23.24;47.34;99627.56;3147519;28;20056;-66
2022/08/05 02:04:51;;;;;;;8.05;3.58;;;;;;;23.19;47.30;99627.19;3147370;28;20821;-64
2022/08/05 02:06:23;;;;;;;11.02;4.43;;;;;;;23.19;47.20;99635.16;3147579;28;20040;-64
2022/08/05 02:07:56;;;;;;;6.90;3.50;;;;;;;23.16;47.12;99631.00;3147186;28;20045;-64
2022/08/05 02:09:28;;;;;;;8.38;4.10;;;;;;;23.16;47.11;99627.50;3147503;28;20068;-64
2022/08/05 02:11:08;;;;;;;5.87;3.90;;;;;;;23.18;47.49;99628.16;3147199;28;20052;-64
2022/08/05 02:12:46;;;;;;;10.68;4.10;;;;;;;23.17;47.50;99629.16;3147328;28;20048;-64
2022/08/05 02:14:24;;;;;;;8.18;3.70;;;;;;;23.12;47.50;99632.28;3147287;28;20067;-65
2022/08/05 02:16:02;;;;;;;9.00;4.10;;;;;;;23.13;47.42;99627.78;3147026;28;20049;-65
2022/08/05 02:17:41;;;;;;;9.30;3.50;;;;;;;23.12;47.30;99634.09;3147504;28;20135;-64
2022/08/05 02:19:20;;;;;;;6.88;3.63;;;;;;;23.08;47.74;99627.44;3147022;28;20048;-64
2022/08/05 02:20:57;;;;;;;8.02;3.92;;;;;;;23.07;47.35;99626.63;3147243;28;20082;-64
2022/08/05 02:22:30;;;;;;;7.18;3.58;;;;;;;23.08;47.54;99632.75;3146857;28;20471;-64
2022/08/05 02:24:06;;;;;;;10.77;4.28;;;;;;;23.05;47.80;99628.56;3147005;28;20059;-66
2022/08/05 02:25:40;;;;;;;5.78;3.88;;;;;;;23.04;47.79;99631.38;3146998;28;20062;-64
2022/08/05 02:27:13;;;;;;;6.88;3.85;;;;;;;23.04;47.66;99631.38;3147116;28;20472;-64
2022/08/05 02:28:46;;;;;;;8.57;4.00;;;;;;;23.03;47.67;99629.72;3147058;28;20468;-64
2022/08/05 02:30:18;;;;;;;;;;;;;;;23.00;47.91;99630.03;3140750;28;20337;-63
2022/08/05 02:31:57;;;;;;;4.63;3.53;;;;;;;22.98;47.87;99632.00;3148234;28;19921;-66
2022/08/05 02:33:32;;;;;;;7.22;3.78;;;;;;;22.98;47.82;99627.50;3147161;28;20060;-64
2022/08/05 02:35:09;;;;;;;11.00;3.85;;;;;;;22.98;47.66;99632.00;3146958;28;20102;-64
2022/08/05 02:36:49;;;;;;;6.05;3.63;;;;;;;22.99;47.74;99631.84;3147057;28;20049;-64
2022/08/05 02:38:21;;;;;;;8.50;4.30;;;;;;;22.98;47.59;99622.19;3147104;28;20106;-63
2022/08/05 02:39:53;;;;;;;6.50;4.13;;;;;;;22.98;47.71;99627.50;3146920;28;20107;-63
2022/08/05 02:41:27;;;;;;;6.25;3.95;;;;;;;22.96;47.50;99628.66;3147269;28;20049;-64
2022/08/05 02:43:00;;;;;;;6.93;4.40;;;;;;;22.92;47.93;99628.09;3147074;28;20064;-63
2022/08/05 02:44:35;;;;;;;15.05;3.90;;;;;;;22.91;47.97;99629.09;3146774;28;20052;-64
2022/08/05 02:46:07;;;;;;;10.15;3.83;;;;;;;22.88;48.00;99624.91;3146940;28;20455;-64
2022/08/05 02:47:42;;;;;;;7.30;3.75;;;;;;;22.88;47.77;99627.56;3144451;28;20135;-64
2022/08/05 02:49:16;;;;;;;6.63;4.07;;;;;;;22.85;47.91;99625.22;3146890;28;20538;-64
2022/08/05 02:50:50;;;;;;;7.28;3.95;;;;;;;22.84;47.53;99633.34;3140484;28;20056;-64
2022/08/05 02:52:23;;;;;;;6.70;4.10;;;;;;;22.82;47.61;99637.97;3147183;28;20052;-64
2022/08/05 02:53:55;;;;;;;15.65;3.45;;;;;;;22.79;47.79;99630.31;3147096;28;20048;-64
2022/08/05 02:55:28;;;;;;;5.20;3.50;;;;;;;22.77;47.81;99629.63;3147025;28;20048;-64
2022/08/05 02:56:59;;;;;;;;;;;;;;;22.73;47.90;99630.91;3147174;28;20103;-64
2022/08/05 02:58:32;;;;;;;4.35;3.58;;;;;;;22.70;48.10;99626.75;3146906;28;19946;-64
2022/08/05 03:00:05;;;;;;;8.68;4.22;;;;;;;22.70;47.69;99634.69;3146764;28;20049;-64
2022/08/05 03:01:40;;;;;;;8.70;3.80;;;;;;;22.67;47.70;99630.53;3149051;28;20119;-64
2022/08/05 03:03:16;;;;;;;7.57;3.70;;;;;;;22.70;47.92;99629.41;3146582;28;20040;-64
2022/08/05 03:04:51;;;;;;;7.55;3.75;;;;;;;22.69;47.71;99638.34;3146878;28;20437;-64
2022/08/05 03:06:23;;;;;;;6.00;4.03;;;;;;;22.70;47.90;99640.84;3140354;28;20040;-64
2022/08/05 03:07:55;;;;;;;5.30;3.70;;;;;;;22.65;47.66;99643.09;3146828;28;20059;-64
2022/08/05 03:09:28;;;;;;;9.43;3.70;;;;;;;22.57;48.09;99635.09;3146533;28;20052;-64
2022/08/05 03:11:00;;;;;;;6.68;4.75;;;;;;;22.52;48.11;99641.81;3146710;28;20557;-64
2022/08/05 03:12:31;;;;;;;7.53;3.78;;;;;;;22.48;48.04;99643.94;3143930;28;20063;-64
2022/08/05 03:14:03;;;;;;;6.05;3.40;;;;;;;22.40;48.36;99634.06;3146576;28;20052;-64
2022/08/05 03:15:35;;;;;;;7.03;3.58;;;;;;;22.38;48.60;99633.38;3146323;28;20402;-64
2022/08/05 03:17:07;;;;;;;6.30;4.00;;;;;;;22.34;48.61;99634.66;3147201;28;20063;-64
2022/08/05 03:18:41;;;;;;;8.90;3.92;;;;;;;22.32;48.53;99625.19;3146208;28;20151;-64
2022/08/05 03:20:13;;;;;;;6.38;4.28;;;;;;;22.33;48.72;99637.44;3146659;28;20045;-64
2022/08/05 03:21:45;;;;;;;6.68;3.75;;;;;;;22.32;48.64;99641.09;3146506;28;20404;-64
2022/08/05 03:23:17;;;;;;;6.47;3.58;;;;;;;22.31;48.53;99632.31;3147031;28;20049;-64
2022/08/05 03:24:51;;;;;;;6.43;3.78;;;;;;;22.31;48.44;99634.97;3146546;28;20471;-64
2022/08/05 03:26:23;;;;;;;9.00;4.05;;;;;;;22.30;48.61;99637.75;3146566;28;20049;-64
2022/08/05 03:27:56;;;;;;;8.85;4.28;;;;;;;22.31;48.49;99636.78;3146498;28;20048;-64
2022/08/05 03:29:27;;;;;;;6.47;4.15;;;;;;;22.30;48.47;99635.09;3146826;28;20102;-64
2022/08/05 03:31:01;;;;;;;6.63;3.88;;;;;;;22.30;48.61;99637.75;3149099;28;20066;-64
2022/08/05 03:32:32;;;;;;;5.85;4.18;;;;;;;22.29;48.59;99639.56;3140020;28;20040;-64
2022/08/05 03:34:05;;;;;;;6.85;3.58;;;;;;;22.28;48.74;99637.91;3146734;28;20052;-64
2022/08/05 03:35:38;;;;;;;7.30;3.60;;;;;;;22.28;48.48;99639.75;3146532;28;20468;-64
2022/08/05 03:37:10;;;;;;;7.27;3.60;;;;;;;22.23;48.47;99642.81;3146700;28;20439;-64
2022/08/05 03:38:42;;;;;;;7.78;4.03;;;;;;;22.22;48.57;99646.47;3146756;28;20310;-64
2022/08/05 03:40:15;;;;;;;4.60;3.90;;;;;;;22.18;48.48;99643.28;3146709;28;20052;-64
2022/08/05 03:41:46;;;;;;;11.57;4.03;;;;;;;22.18;48.64;99639.78;3146460;28;20567;-64
2022/08/05 03:43:19;;;;;;;5.88;3.88;;;;;;;22.17;48.85;99644.25;3146530;28;20045;-64
2022/08/05 03:44:50;;;;;;;6.28;3.53;;;;;;;22.16;48.93;99644.38;3142986;28;20048;-64
2022/08/05 03:46:22;;;;;;;12.32;3.90;;;;;;;22.11;48.95;99641.31;3150066;28;20419;-65
2022/08/05 03:47:54;;;;;;;6.32;4.18;;;;;;;22.06;49.12;99640.91;3148477;28;20060;-64
2022/08/05 03:49:27;;;;;;;9.30;4.25;;;;;;;22.04;49.11;99647.22;3146507;28;20059;-65
2022/08/05 03:51:03;;;;;;;;;;;;;;;21.93;49.46;99644.75;3147250;28;20045;-64
2022/08/05 03:52:42;;;;;;;8.90;4.13;;;;;;;21.87;49.35;99637.38;3146749;28;19920;-65
2022/08/05 03:54:18;;;;;;;7.85;4.03;;;;;;;21.79;49.81;99648.69;3146405;28;20049;-64
2022/08/05 03:56:00;;;;;;;6.80;3.83;;;;;;;21.77;49.58;99634.78;3146576;28;20105;-64
2022/08/05 03:57:33;;;;;;;5.07;3.65;;;;;;;21.84;49.66;99644.78;3146363;28;20530;-65
2022/08/05 03:59:09;;;;;;;8.70;3.60;;;;;;;21.78;49.78;99639.09;3146469;28;20048;-64
2022/08/05 04:00:43;;;;;;;8.90;4.10;;;;;;;21.77;49.88;99639.25;3144727;28;20045;-65
2022/08/05 04:02:16;;;;;;;7.38;3.42;;;;;;;21.79;49.91;99646.03;3147289;28;20049;-65
2022/08/05 04:03:50;;;;;;;8.00;4.50;;;;;;;21.78;49.79;99644.38;3146682;28;20150;-65
2022/08/05 04:05:24;;;;;;;7.57;3.83;;;;;;;21.74;49.93;99644.81;3143720;28;20433;-64
2022/08/05 04:06:57;;;;;;;7.82;3.80;;;;;;;21.73;49.89;99640.50;3146632;28;20051;-65
2022/08/05 04:08:29;;;;;;;;;;;;;;;21.68;50.35;99634.78;3146660;28;20051;-64
2022/08/05 04:10:03;;;;;;;6.50;3.53;;;;;;;21.63;50.31;99629.94;3146192;28;19947;-64
2022/08/05 04:11:36;;;;;;;6.13;3.88;;;;;;;21.63;50.37;99629.09;3146321;28;20105;-65
2022/08/05 04:13:08;;;;;;;;;;;;;;;21.56;50.51;99632.31;3147031;28;20476;-65
2022/08/05 04:14:41;;;;;;;8.25;4.60;;;;;;;21.56;50.49;99623.53;3146415;28;19928;-64
2022/08/05 04:16:13;;;;;;;8.30;3.58;;;;;;;21.60;50.38;99630.22;3146014;28;20549;-64
2022/08/05 04:17:45;;;;;;;9.65;4.57;;;;;;;21.62;50.58;99630.06;3146663;28;20052;-64
2022/08/05 04:19:17;;;;;;;8.70;3.83;;;;;;;21.66;50.28;99631.47;3142170;28;20364;-65
2022/08/05 04:20:54;;;;;;;6.70;3.60;;;;;;;21.68;50.39;99634.78;3146250;28;20063;-64
2022/08/05 04:22:26;;;;;;;5.63;3.92;;;;;;;21.68;50.12;99630.34;3146168;28;20137;-65
2022/08/05 04:23:58;;;;;;;6.10;3.85;;;;;;;21.68;50.26;99626.84;3146323;28;20464;-64
2022/08/05 04:25:30;;;;;;;8.95;4.20;;;;;;;21.69;50.26;99625.88;3146261;28;20084;-64
2022/08/05 04:27:02;;;;;;;9.65;3.55;;;;;;;21.71;50.36;99629.19;3146228;28;20385;-65
2022/08/05 04:28:34;;;;;;;17.23;3.83;;;;;;;21.73;50.25;99629.88;3146195;28;20412;-64
2022/08/05 04:30:08;;;;;;;6.65;3.15;;;;;;;21.73;50.22;99616.63;3146344;28;20052;-64
2022/08/05 04:31:40;;;;;;;20.45;4.28;;;;;;;21.77;49.99;99620.69;3149286;28;20045;-65
2022/08/05 04:33:12;;;;;;;8.50;4.78;;;;;;;21.80;49.98;99621.22;3148680;28;20059;-65
2022/08/05 04:34:44;;;;;;;7.68;3.88;;;;;;;21.84;49.51;99624.41;3148454;28;20051;-65
2022/08/05 04:36:18;;;;;;;9.95;3.97;;;;;;;21.86;49.75;99616.31;3148570;28;20360;-65
2022/08/05 04:37:50;;;;;;;12.43;5.13;;;;;;;21.90;49.68;99615.88;3148406;28;20045;-64
2022/08/05 04:39:21;;;;;;;15.45;4.70;;;;;;;21.90;48.98;99612.41;3148217;28;20569;-65
2022/08/05 04:40:53;;;;;;;9.90;4.10;;;;;;;21.95;48.85;99618.09;3148277;28;20424;-65
2022/08/05 04:42:25;;;;;;;9.00;4.28;;;;;;;21.98;49.18;99618.63;3148160;28;20380;-64
2022/08/05 04:43:57;;;;;;;6.35;4.30;;;;;;;22.00;48.88;99613.16;3142409;28;20458;-65
2022/08/05 04:45:29;;;;;;;8.75;3.60;;;;;;;22.03;48.92;99612.88;3141773;28;20110;-65
2022/08/05 04:47:01;;;;;;;7.47;3.60;;;;;;;22.08;49.01;99623.88;3152291;28;20456;-65
2022/08/05 04:48:33;;;;;;;6.15;3.75;;;;;;;22.14;48.76;99619.81;3148365;28;20141;-64
2022/08/05 04:50:06;;;;;;;9.25;3.72;;;;;;;22.14;48.69;99620.63;3148142;28;20045;-64
2022/08/05 04:51:39;;;;;;;8.25;4.35;;;;;;;22.21;48.54;99626.22;3148187;28;20048;-64
2022/08/05 04:53:12;;;;;;;;;;;;;;;22.23;48.59;99619.78;3149089;28;20048;-64
2022/08/05 04:54:44;;;;;;;11.18;3.72;;;;;;;22.21;48.70;99618.25;3148270;28;19950;-64
2022/08/05 04:56:16;;;;;;;8.35;4.07;;;;;;;22.27;48.65;99622.97;3148202;28;20045;-65
2022/08/05 04:57:48;;;;;;;9.00;3.55;;;;;;;22.30;48.27;99617.34;3141863;28;20128;-65
2022/08/05 04:59:21;;;;;;;8.90;3.78;;;;;;;22.33;48.56;99619.75;3148368;28;20114;-65
2022/08/05 05:00:53;;;;;;;7.22;3.63;;;;;;;22.40;48.08;99618.16;3148344;28;20049;-64
2022/08/05 05:02:25;;;;;;;6.03;3.60;;;;;;;22.47;48.31;99623.69;3154237;28;20122;-65
2022/08/05 05:03:56;;;;;;;7.68;3.88;;;;;;;22.50;48.07;99626.03;3148056;28;20528;-64
2022/08/05 05:05:29;;;;;;;8.27;3.08;;;;;;;22.54;48.00;99624.78;3148279;28;20373;-64
2022/08/05 05:07:03;;;;;;;10.20;4.22;;;;;;;22.57;48.21;99621.81;3147930;28;20105;-64
2022/08/05 05:08:36;;;;;;;7.85;4.03;;;;;;;22.62;47.76;99631.97;3147745;28;20048;-65
2022/08/05 05:10:08;;;;;;;12.10;4.15;;;;;;;22.67;47.82;99629.69;3147814;28;20077;-65
2022/08/05 05:11:40;;;;;;;6.30;3.38;;;;;;;22.71;47.89;99623.91;3147939;28;20052;-65
2022/08/05 05:13:13;;;;;;;15.98;3.55;;;;;;;22.78;47.62;99626.81;3148031;28;20048;-65
2022/08/05 05:14:45;;;;;;;9.68;3.70;;;;;;;22.84;47.67;99631.53;3147865;28;20498;-65
2022/08/05 05:16:17;;;;;;;4.15;3.20;;;;;;;22.89;47.84;99629.25;3147996;28;20397;-64
2022/08/05 05:17:48;;;;;;;6.35;3.22;;;;;;;22.91;47.64;99624.59;3148241;28;20053;-65
2022/08/05 05:19:20;;;;;;;4.65;3.17;;;;;;;22.95;47.29;99611.88;3147946;28;20505;-66
2022/08/05 05:20:52;;;;;;;8.50;3.40;;;;;;;23.02;47.45;99620.09;3148068;28;20059;-66
2022/08/05 05:22:26;;;;;;;8.50;3.75;;;;;;;23.08;47.41;99617.66;3148059;28;20113;-66
2022/08/05 05:23:57;;;;;;;5.20;3.70;;;;;;;23.13;47.50;99618.03;3148267;28;20052;-65
2022/08/05 05:25:30;;;;;;;8.98;3.47;;;;;;;23.21;47.36;99617.22;3148087;28;20048;-66
2022/08/05 05:27:02;;;;;;;10.23;3.70;;;;;;;23.26;47.42;99617.59;3147948;28;20407;-65
2022/08/05 05:28:34;;;;;;;7.15;3.47;;;;;;;23.31;47.30;99611.84;3148164;28;20059;-66
2022/08/05 05:30:06;;;;;;;4.45;2.78;;;;;;;23.38;47.13;99611.03;3147623;28;20452;-66
2022/08/05 05:31:38;;;;;;;9.77;3.28;;;;;;;23.44;47.00;99609.59;3147676;28;20431;-66
2022/08/05 05:33:10;;;;;;;7.57;3.20;;;;;;;23.51;47.04;99612.44;3147673;28;20495;-65
2022/08/05 05:34:42;;;;;;;6.60;3.35;;;;;;;23.59;46.89;99602.69;3147785;28;20555;-66
2022/08/05 05:36:14;;;;;;;6.10;3.33;;;;;;;23.66;46.81;99610.03;3147771;28;20412;-66
2022/08/05 05:37:49;;;;;;;5.90;3.03;;;;;;;23.73;46.53;99605.81;3147659;28;20059;-66
2022/08/05 05:39:21;;;;;;;4.20;3.35;;;;;;;23.81;46.67;99609.34;3147853;28;20064;-65
2022/08/05 05:40:53;;;;;;;3.80;2.88;;;;;;;23.89;46.49;99611.19;3147823;28;20460;-66
2022/08/05 05:42:25;;;;;;;5.80;3.42;;;;;;;23.97;45.77;99613.06;3147147;28;20416;-64
2022/08/05 05:43:57;;;;;;;5.57;2.97;;;;;;;24.02;46.21;99611.59;3147489;28;20451;-64
2022/08/05 05:45:29;;;;;;;4.75;3.20;;;;;;;24.11;45.54;99612.44;3147617;28;20098;-64
2022/08/05 05:47:01;;;;;;;3.25;2.83;;;;;;;24.22;45.32;99611.31;3150375;28;20049;-64
2022/08/05 05:48:33;;;;;;;6.68;3.22;;;;;;;24.33;45.47;99613.66;3147473;28;20040;-64
2022/08/05 05:50:07;;;;;;;3.47;2.53;;;;;;;24.41;45.02;99616.34;3147459;28;20480;-64
2022/08/05 05:51:39;;;;;;;10.57;3.47;;;;;;;24.51;45.01;99621.56;3147511;28;20396;-64
2022/08/05 05:53:14;;;;;;;8.45;3.10;;;;;;;24.63;44.87;99622.91;3147591;28;20048;-64
2022/08/05 05:54:45;;;;;;;12.10;3.03;;;;;;;24.71;44.37;99622.09;3147601;28;20054;-64
2022/08/05 05:56:19;;;;;;;9.00;3.22;;;;;;;24.81;44.26;99614.78;3147366;28;20396;-64
2022/08/05 05:57:51;;;;;;;6.40;3.17;;;;;;;24.91;43.90;99617.28;3147632;28;20083;-64
2022/08/05 05:59:23;;;;;;;10.63;3.67;;;;;;;24.97;43.46;99617.47;3147087;28;20458;-64
2022/08/05 06:00:55;;;;;;;5.47;3.00;;;;;;;25.03;42.82;99610.63;3147463;28;20422;-64
2022/08/05 06:02:27;;;;;;;10.98;3.30;;;;;;;25.13;42.86;99616.63;3151944;28;20125;-64
2022/08/05 06:03:59;;;;;;;5.65;3.13;;;;;;;25.19;42.49;99613.31;3147206;28;20408;-64
2022/08/05 06:05:31;;;;;;;6.15;2.97;;;;;;;25.30;42.14;99617.47;3147604;28;20052;-64
2022/08/05 06:07:03;;;;;;;4.93;2.70;;;;;;;25.40;41.53;99618.09;3147566;28;20074;-64
2022/08/05 06:08:36;;;;;;;5.00;3.15;;;;;;;25.47;41.37;99615.63;3147011;28;20412;-64
2022/08/05 06:10:09;;;;;;;;;;;;;;;25.54;41.38;99610.44;3147741;28;20048;-64
2022/08/05 06:11:41;;;;;;;7.32;2.95;;;;;;;25.69;40.95;99606.03;3147315;28;20315;-64
2022/08/05 06:13:13;;;;;;;7.28;3.03;;;;;;;25.92;40.95;99608.00;3147326;28;20410;-64
2022/08/05 06:14:45;;;;;;;4.82;3.03;;;;;;;26.07;40.55;99615.09;3147390;28;20199;-64
2022/08/05 06:16:17;;;;;;;8.32;3.65;;;;;;;26.16;39.87;99613.22;3147118;28;20041;-64
2022/08/05 06:17:49;;;;;;;6.78;2.90;;;;;;;26.22;39.66;99607.19;3146943;28;20052;-64
2022/08/05 06:19:21;;;;;;;5.95;3.20;;;;;;;26.28;39.76;99611.00;3147161;28;20105;-64
2022/08/05 06:20:53;;;;;;;8.80;3.33;;;;;;;26.38;39.42;99606.25;3147232;28;20480;-64
2022/08/05 06:22:27;;;;;;;11.13;2.92;;;;;;;26.47;39.39;99613.22;3147067;28;20048;-64
2022/08/05 06:24:00;;;;;;;4.90;3.10;;;;;;;26.59;39.45;99608.34;3147477;28;20058;-64
2022/08/05 06:25:32;;;;;;;;;;;;;;;26.68;39.45;99615.28;3147736;28;20396;-64
2022/08/05 06:27:04;;;;;;;6.50;3.13;;;;;;;26.77;39.06;99613.41;3147378;28;19924;-64
2022/08/05 06:28:36;;;;;;;7.13;3.23;;;;;;;26.85;39.10;99612.47;3147492;28;20063;-64
2022/08/05 06:30:14;;;;;;;8.07;3.22;;;;;;;26.94;39.23;99612.22;3146987;28;20119;-64
2022/08/05 06:31:46;;;;;;;9.00;3.50;;;;;;;27.02;39.17;99605.19;3150603;28;20045;-64
2022/08/05 06:33:18;;;;;;;4.80;3.10;;;;;;;27.11;38.90;99609.44;3147069;28;20484;-64
2022/08/05 06:34:50;;;;;;;4.63;3.17;;;;;;;27.18;38.46;99607.72;3147057;28;20056;-64
2022/08/05 06:36:22;;;;;;;3.95;2.80;;;;;;;27.26;38.29;99610.31;3147149;28;20052;-65
2022/08/05 06:37:54;;;;;;;6.15;2.88;;;;;;;27.36;38.73;99605.56;3147233;28;20145;-65
2022/08/05 06:39:27;;;;;;;7.55;3.13;;;;;;;27.44;38.53;99602.78;3147353;28;20070;-65
2022/08/05 06:40:59;;;;;;;5.75;2.85;;;;;;;27.51;38.35;99604.72;3147150;28;20048;-65
2022/08/05 06:42:31;;;;;;;8.95;3.67;;;;;;;27.59;38.25;99596.59;3147093;28;20048;-65
2022/08/05 06:44:03;;;;;;;5.03;3.03;;;;;;;27.64;37.88;99602.25;3146893;28;20349;-65
2022/08/05 06:45:35;;;;;;;4.38;3.10;;;;;;;27.66;37.89;99601.06;3146922;28;20498;-65
2022/08/05 06:47:07;;;;;;;8.60;3.20;;;;;;;27.69;37.89;99597.19;3147720;28;20049;-65
2022/08/05 06:48:39;;;;;;;7.80;2.90;;;;;;;27.72;37.65;99606.69;3146860;28;20056;-65
2022/08/05 06:50:11;;;;;;;6.43;3.08;;;;;;;27.76;38.04;99602.63;3147052;28;20060;-65
2022/08/05 06:51:43;;;;;;;5.55;3.33;;;;;;;27.77;37.83;99605.09;3146025;28;20052;-65
2022/08/05 06:53:15;;;;;;;11.35;3.20;;;;;;;27.77;38.46;99602.41;3145407;28;20422;-65
2022/08/05 06:54:49;;;;;;;6.53;3.10;;;;;;;27.81;37.88;99608.28;3145575;28;20049;-65
2022/08/05 06:56:20;;;;;;;7.32;3.03;;;;;;;27.83;38.26;99607.09;3146011;28;20052;-65
2022/08/05 06:57:52;;;;;;;10.50;3.30;;;;;;;27.83;38.35;99604.41;3145403;28;20052;-65
2022/08/05 06:59:24;;;;;;;4.50;3.42;;;;;;;27.84;38.56;99602.56;3145836;28;20487;-65
2022/08/05 07:00:58;;;;;;;9.88;3.70;;;;;;;27.89;38.81;99602.81;3145768;28;20044;-64
2022/08/05 07:02:30;;;;;;;11.20;3.60;;;;;;;27.96;38.73;99603.75;3148961;28;20049;-64
2022/08/05 07:04:02;;;;;;;4.57;3.35;;;;;;;28.04;38.53;99606.31;3146122;28;20138;-65
2022/08/05 07:05:34;;;;;;;3.67;3.20;;;;;;;28.11;38.27;99601.84;3145817;28;20052;-65
2022/08/05 07:07:06;;;;;;;9.38;3.20;;;;;;;28.21;38.41;99601.56;3145795;28;20063;-65
2022/08/05 07:08:38;;;;;;;7.03;3.47;;;;;;;28.34;38.42;99607.06;3141556;28;20063;-65
2022/08/05 07:10:11;;;;;;;9.65;3.63;;;;;;;28.47;38.27;99605.59;3145701;28;20052;-65
2022/08/05 07:11:43;;;;;;;5.38;3.25;;;;;;;28.56;37.83;99604.44;3145423;28;20041;-64
2022/08/05 07:16:58;;;;;;;6.20;3.15;;;;;;;28.87;37.63;99614.00;3147067;28;20048;-64
2022/08/05 07:18:30;;;;;;;7.72;3.13;;;;;;;28.95;37.55;99606.66;3146839;28;20139;-65
2022/08/05 07:20:02;;;;;;;7.00;3.20;;;;;;;29.06;37.44;99612.56;3146875;28;20052;-64
2022/08/05 07:21:34;;;;;;;8.48;3.60;;;;;;;29.15;36.71;99606.84;3146995;28;20060;-65
2022/08/05 07:23:07;;;;;;;;;;;;;;;29.24;37.06;99611.06;3147240;28;20056;-64